sensor_id;sensor_type;location;lat;lon;timestamp;P1;durP1;ratioP1;P2;durP2;ratioP2
84852;SDS011;75109;47.440;19.310;2024-01-06T00:00:46;43.57;;;43.40;;
84852;SDS011;75109;47.440;19.310;2024-01-06T00:01:47;47.70;;;46.70;;
84852;SDS011;75109;47.440;19.310;2024-01-06T00:02:26;47.00;;;45.43;;
84852;SDS011;75109;47.440;19.310;2024-01-06T00:03:04;47.60;;;46.40;;
84852;SDS011;75109;47.440;19.310;2024-01-06T00:03:40;46.70;;;45.30;;
84852;SDS011;75109;47.440;19.310;2024-01-06T00:04:18;48.77;;;47.07;;
84852;SDS011;75109;47.440;19.310;2024-01-06T00:04:54;45.43;;;44.37;;
84852;SDS011;75109;47.440;19.310;2024-01-06T00:05:34;44.90;;;44.70;;
84852;SDS011;75109;47.440;19.310;2024-01-06T00:06:11;45.53;;;45.13;;
84852;SDS011;75109;47.440;19.310;2024-01-06T00:06:46;46.63;;;45.17;;
84852;SDS011;75109;47.440;19.310;2024-01-06T00:07:19;46.30;;;45.13;;
84852;SDS011;75109;47.440;19.310;2024-01-06T00:07:54;44.20;;;44.17;;
84852;SDS011;75109;47.440;19.310;2024-01-06T00:08:32;44.03;;;44.03;;
84852;SDS011;75109;47.440;19.310;2024-01-06T00:09:09;45.07;;;44.30;;
84852;SDS011;75109;47.440;19.310;2024-01-06T00:09:44;43.97;;;43.57;;
84852;SDS011;75109;47.440;19.310;2024-01-06T00:10:18;43.30;;;43.23;;
84852;SDS011;75109;47.440;19.310;2024-01-06T00:10:50;44.07;;;44.07;;
84852;SDS011;75109;47.440;19.310;2024-01-06T00:11:50;45.10;;;43.93;;
84852;SDS011;75109;47.440;19.310;2024-01-06T00:12:29;46.10;;;45.53;;
84852;SDS011;75109;47.440;19.310;2024-01-06T00:13:02;43.13;;;42.83;;
84852;SDS011;75109;47.440;19.310;2024-01-06T00:13:37;45.40;;;44.50;;
84852;SDS011;75109;47.440;19.310;2024-01-06T00:14:13;44.20;;;43.73;;
84852;SDS011;75109;47.440;19.310;2024-01-06T00:14:46;43.20;;;43.10;;
84852;SDS011;75109;47.440;19.310;2024-01-06T00:15:21;45.87;;;45.40;;
84852;SDS011;75109;47.440;19.310;2024-01-06T00:15:54;44.17;;;44.07;;
84852;SDS011;75109;47.440;19.310;2024-01-06T00:16:29;44.47;;;44.30;;
84852;SDS011;75109;47.440;19.310;2024-01-06T00:17:09;44.17;;;44.17;;
84852;SDS011;75109;47.440;19.310;2024-01-06T00:17:45;45.63;;;45.50;;
84852;SDS011;75109;47.440;19.310;2024-01-06T00:18:24;45.30;;;44.90;;
84852;SDS011;75109;47.440;19.310;2024-01-06T00:19:00;45.37;;;45.00;;
84852;SDS011;75109;47.440;19.310;2024-01-06T00:19:39;44.07;;;44.07;;
84852;SDS011;75109;47.440;19.310;2024-01-06T00:20:12;43.53;;;43.50;;
84852;SDS011;75109;47.440;19.310;2024-01-06T00:20:45;45.00;;;44.57;;
84852;SDS011;75109;47.440;19.310;2024-01-06T00:21:19;45.47;;;44.57;;
84852;SDS011;75109;47.440;19.310;2024-01-06T00:21:55;46.40;;;45.33;;
84852;SDS011;75109;47.440;19.310;2024-01-06T00:22:33;46.57;;;46.03;;
84852;SDS011;75109;47.440;19.310;2024-01-06T00:23:08;44.33;;;43.50;;
84852;SDS011;75109;47.440;19.310;2024-01-06T00:23:46;46.30;;;44.93;;
84852;SDS011;75109;47.440;19.310;2024-01-06T00:24:22;46.33;;;45.00;;
84852;SDS011;75109;47.440;19.310;2024-01-06T00:25:02;45.10;;;44.97;;
84852;SDS011;75109;47.440;19.310;2024-01-06T00:25:39;43.30;;;43.10;;
84852;SDS011;75109;47.440;19.310;2024-01-06T00:26:11;44.70;;;44.20;;
84852;SDS011;75109;47.440;19.310;2024-01-06T00:26:49;46.70;;;45.07;;
84852;SDS011;75109;47.440;19.310;2024-01-06T00:27:22;47.00;;;45.43;;
84852;SDS011;75109;47.440;19.310;2024-01-06T00:27:59;44.57;;;44.43;;
84852;SDS011;75109;47.440;19.310;2024-01-06T00:28:32;46.60;;;46.03;;
84852;SDS011;75109;47.440;19.310;2024-01-06T00:29:04;46.30;;;45.23;;
84852;SDS011;75109;47.440;19.310;2024-01-06T00:29:41;45.30;;;45.13;;
84852;SDS011;75109;47.440;19.310;2024-01-06T00:30:15;44.50;;;44.33;;
84852;SDS011;75109;47.440;19.310;2024-01-06T00:30:50;44.37;;;44.20;;
84852;SDS011;75109;47.440;19.310;2024-01-06T00:31:25;43.63;;;43.30;;
84852;SDS011;75109;47.440;19.310;2024-01-06T00:31:58;45.23;;;45.03;;
84852;SDS011;75109;47.440;19.310;2024-01-06T00:32:34;43.93;;;43.60;;
84852;SDS011;75109;47.440;19.310;2024-01-06T00:33:10;45.13;;;44.00;;
84852;SDS011;75109;47.440;19.310;2024-01-06T00:33:46;45.97;;;44.93;;
84852;SDS011;75109;47.440;19.310;2024-01-06T00:34:20;44.70;;;44.60;;
84852;SDS011;75109;47.440;19.310;2024-01-06T00:34:54;43.70;;;43.67;;
84852;SDS011;75109;47.440;19.310;2024-01-06T00:35:29;44.53;;;44.27;;
84852;SDS011;75109;47.440;19.310;2024-01-06T00:36:03;45.00;;;44.80;;
84852;SDS011;75109;47.440;19.310;2024-01-06T00:36:46;43.33;;;42.90;;
84852;SDS011;75109;47.440;19.310;2024-01-06T00:37:23;45.03;;;44.23;;
84852;SDS011;75109;47.440;19.310;2024-01-06T00:37:57;44.83;;;44.33;;
84852;SDS011;75109;47.440;19.310;2024-01-06T00:38:32;44.93;;;44.93;;
84852;SDS011;75109;47.440;19.310;2024-01-06T00:39:06;43.43;;;43.30;;
84852;SDS011;75109;47.440;19.310;2024-01-06T00:39:42;44.63;;;44.37;;
84852;SDS011;75109;47.440;19.310;2024-01-06T00:40:17;45.23;;;44.07;;
84852;SDS011;75109;47.440;19.310;2024-01-06T00:41:09;45.87;;;45.50;;
84852;SDS011;75109;47.440;19.310;2024-01-06T00:41:46;45.90;;;45.03;;
84852;SDS011;75109;47.440;19.310;2024-01-06T00:42:21;43.03;;;42.63;;
84852;SDS011;75109;47.440;19.310;2024-01-06T00:42:53;43.23;;;43.23;;
84852;SDS011;75109;47.440;19.310;2024-01-06T00:43:33;40.87;;;40.87;;
84852;SDS011;75109;47.440;19.310;2024-01-06T00:44:05;41.20;;;41.03;;
84852;SDS011;75109;47.440;19.310;2024-01-06T00:44:38;43.27;;;43.10;;
84852;SDS011;75109;47.440;19.310;2024-01-06T00:45:11;42.60;;;42.57;;
84852;SDS011;75109;47.440;19.310;2024-01-06T00:45:43;41.40;;;41.37;;
84852;SDS011;75109;47.440;19.310;2024-01-06T00:46:16;40.27;;;40.20;;
84852;SDS011;75109;47.440;19.310;2024-01-06T00:46:51;40.63;;;40.43;;
84852;SDS011;75109;47.440;19.310;2024-01-06T00:47:23;42.43;;;41.80;;
84852;SDS011;75109;47.440;19.310;2024-01-06T00:47:58;42.00;;;40.83;;
84852;SDS011;75109;47.440;19.310;2024-01-06T00:48:41;42.60;;;42.27;;
84852;SDS011;75109;47.440;19.310;2024-01-06T00:49:14;41.63;;;40.90;;
84852;SDS011;75109;47.440;19.310;2024-01-06T00:49:49;41.07;;;40.80;;
84852;SDS011;75109;47.440;19.310;2024-01-06T00:50:22;40.23;;;39.83;;
84852;SDS011;75109;47.440;19.310;2024-01-06T00:50:56;41.50;;;41.50;;
84852;SDS011;75109;47.440;19.310;2024-01-06T00:51:28;41.37;;;41.13;;
84852;SDS011;75109;47.440;19.310;2024-01-06T00:52:04;42.60;;;42.03;;
84852;SDS011;75109;47.440;19.310;2024-01-06T00:52:37;43.67;;;43.53;;
84852;SDS011;75109;47.440;19.310;2024-01-06T00:53:11;42.40;;;41.80;;
84852;SDS011;75109;47.440;19.310;2024-01-06T00:53:47;41.27;;;41.00;;
84852;SDS011;75109;47.440;19.310;2024-01-06T00:54:21;40.50;;;40.37;;
84852;SDS011;75109;47.440;19.310;2024-01-06T00:54:53;40.20;;;40.20;;
84852;SDS011;75109;47.440;19.310;2024-01-06T00:55:27;40.80;;;40.17;;
84852;SDS011;75109;47.440;19.310;2024-01-06T00:56:00;43.27;;;42.33;;
84852;SDS011;75109;47.440;19.310;2024-01-06T00:56:33;43.20;;;42.50;;
84852;SDS011;75109;47.440;19.310;2024-01-06T00:57:05;43.97;;;43.10;;
84852;SDS011;75109;47.440;19.310;2024-01-06T00:57:47;42.73;;;42.07;;
84852;SDS011;75109;47.440;19.310;2024-01-06T00:58:21;41.77;;;41.77;;
84852;SDS011;75109;47.440;19.310;2024-01-06T00:58:55;42.13;;;41.90;;
84852;SDS011;75109;47.440;19.310;2024-01-06T00:59:31;42.13;;;41.83;;
84852;SDS011;75109;47.440;19.310;2024-01-06T01:00:04;40.63;;;40.60;;
84852;SDS011;75109;47.440;19.310;2024-01-06T01:00:45;42.37;;;42.33;;
84852;SDS011;75109;47.440;19.310;2024-01-06T01:01:21;40.37;;;40.27;;
84852;SDS011;75109;47.440;19.310;2024-01-06T01:01:56;42.03;;;41.77;;
84852;SDS011;75109;47.440;19.310;2024-01-06T01:02:32;45.20;;;44.17;;
84852;SDS011;75109;47.440;19.310;2024-01-06T01:03:06;45.63;;;44.23;;
84852;SDS011;75109;47.440;19.310;2024-01-06T01:03:39;43.43;;;42.50;;
84852;SDS011;75109;47.440;19.310;2024-01-06T01:04:16;42.27;;;42.07;;
84852;SDS011;75109;47.440;19.310;2024-01-06T01:04:49;40.80;;;40.73;;
84852;SDS011;75109;47.440;19.310;2024-01-06T01:05:36;42.40;;;41.70;;
84852;SDS011;75109;47.440;19.310;2024-01-06T01:06:10;42.97;;;41.77;;
84852;SDS011;75109;47.440;19.310;2024-01-06T01:06:49;41.33;;;41.17;;
84852;SDS011;75109;47.440;19.310;2024-01-06T01:07:25;41.33;;;41.10;;
84852;SDS011;75109;47.440;19.310;2024-01-06T01:07:59;43.07;;;42.00;;
84852;SDS011;75109;47.440;19.310;2024-01-06T01:08:31;41.50;;;40.57;;
84852;SDS011;75109;47.440;19.310;2024-01-06T01:09:06;40.93;;;40.17;;
84852;SDS011;75109;47.440;19.310;2024-01-06T01:09:42;41.10;;;40.10;;
84852;SDS011;75109;47.440;19.310;2024-01-06T01:10:15;41.33;;;40.63;;
84852;SDS011;75109;47.440;19.310;2024-01-06T01:10:48;39.83;;;39.47;;
84852;SDS011;75109;47.440;19.310;2024-01-06T01:11:21;39.80;;;39.30;;
84852;SDS011;75109;47.440;19.310;2024-01-06T01:11:59;41.23;;;40.17;;
84852;SDS011;75109;47.440;19.310;2024-01-06T01:12:35;40.67;;;40.33;;
84852;SDS011;75109;47.440;19.310;2024-01-06T01:13:30;41.83;;;40.60;;
84852;SDS011;75109;47.440;19.310;2024-01-06T01:14:07;41.90;;;40.83;;
84852;SDS011;75109;47.440;19.310;2024-01-06T01:14:40;40.37;;;40.23;;
84852;SDS011;75109;47.440;19.310;2024-01-06T01:15:16;40.30;;;40.17;;
84852;SDS011;75109;47.440;19.310;2024-01-06T01:15:51;39.33;;;38.97;;
84852;SDS011;75109;47.440;19.310;2024-01-06T01:16:24;41.03;;;39.97;;
84852;SDS011;75109;47.440;19.310;2024-01-06T01:16:57;44.03;;;42.73;;
84852;SDS011;75109;47.440;19.310;2024-01-06T01:17:33;42.40;;;41.83;;
84852;SDS011;75109;47.440;19.310;2024-01-06T01:18:07;42.73;;;41.67;;
84852;SDS011;75109;47.440;19.310;2024-01-06T01:18:41;42.17;;;41.87;;
84852;SDS011;75109;47.440;19.310;2024-01-06T01:19:14;41.80;;;41.43;;
84852;SDS011;75109;47.440;19.310;2024-01-06T01:19:49;42.30;;;41.73;;
84852;SDS011;75109;47.440;19.310;2024-01-06T01:20:23;41.83;;;41.70;;
84852;SDS011;75109;47.440;19.310;2024-01-06T01:20:59;43.67;;;42.87;;
84852;SDS011;75109;47.440;19.310;2024-01-06T01:21:31;44.53;;;43.63;;
84852;SDS011;75109;47.440;19.310;2024-01-06T01:22:04;44.03;;;43.47;;
84852;SDS011;75109;47.440;19.310;2024-01-06T01:22:39;42.83;;;42.53;;
84852;SDS011;75109;47.440;19.310;2024-01-06T01:23:14;42.67;;;42.03;;
84852;SDS011;75109;47.440;19.310;2024-01-06T01:23:50;42.23;;;41.57;;
84852;SDS011;75109;47.440;19.310;2024-01-06T01:24:22;41.07;;;41.00;;
84852;SDS011;75109;47.440;19.310;2024-01-06T01:24:58;40.73;;;40.20;;
84852;SDS011;75109;47.440;19.310;2024-01-06T01:25:39;41.87;;;40.60;;
84852;SDS011;75109;47.440;19.310;2024-01-06T01:26:12;40.47;;;39.80;;
84852;SDS011;75109;47.440;19.310;2024-01-06T01:26:48;40.27;;;40.13;;
84852;SDS011;75109;47.440;19.310;2024-01-06T01:27:23;41.10;;;40.37;;
84852;SDS011;75109;47.440;19.310;2024-01-06T01:27:59;38.43;;;38.33;;
84852;SDS011;75109;47.440;19.310;2024-01-06T01:28:32;39.43;;;39.27;;
84852;SDS011;75109;47.440;19.310;2024-01-06T01:29:04;38.77;;;38.73;;
84852;SDS011;75109;47.440;19.310;2024-01-06T01:29:37;38.90;;;38.53;;
84852;SDS011;75109;47.440;19.310;2024-01-06T01:30:12;41.33;;;41.33;;
84852;SDS011;75109;47.440;19.310;2024-01-06T01:30:45;38.83;;;38.73;;
84852;SDS011;75109;47.440;19.310;2024-01-06T01:31:28;39.23;;;38.83;;
84852;SDS011;75109;47.440;19.310;2024-01-06T01:32:01;38.67;;;38.37;;
84852;SDS011;75109;47.440;19.310;2024-01-06T01:32:33;37.70;;;37.70;;
84852;SDS011;75109;47.440;19.310;2024-01-06T01:33:10;37.83;;;37.80;;
84852;SDS011;75109;47.440;19.310;2024-01-06T01:33:48;37.90;;;37.87;;
84852;SDS011;75109;47.440;19.310;2024-01-06T01:34:20;39.87;;;39.30;;
84852;SDS011;75109;47.440;19.310;2024-01-06T01:34:54;38.80;;;38.33;;
84852;SDS011;75109;47.440;19.310;2024-01-06T01:35:29;39.17;;;39.17;;
84852;SDS011;75109;47.440;19.310;2024-01-06T01:36:05;40.90;;;40.53;;
84852;SDS011;75109;47.440;19.310;2024-01-06T01:36:38;39.30;;;38.53;;
84852;SDS011;75109;47.440;19.310;2024-01-06T01:37:16;37.83;;;37.80;;
84852;SDS011;75109;47.440;19.310;2024-01-06T01:37:49;37.47;;;37.27;;
84852;SDS011;75109;47.440;19.310;2024-01-06T01:38:23;39.20;;;38.13;;
84852;SDS011;75109;47.440;19.310;2024-01-06T01:38:57;40.23;;;38.90;;
84852;SDS011;75109;47.440;19.310;2024-01-06T01:39:34;39.33;;;38.20;;
84852;SDS011;75109;47.440;19.310;2024-01-06T01:40:07;38.17;;;37.10;;
84852;SDS011;75109;47.440;19.310;2024-01-06T01:40:40;38.67;;;37.57;;
84852;SDS011;75109;47.440;19.310;2024-01-06T01:41:15;40.07;;;38.90;;
84852;SDS011;75109;47.440;19.310;2024-01-06T01:41:48;39.23;;;37.93;;
84852;SDS011;75109;47.440;19.310;2024-01-06T01:42:22;38.50;;;37.70;;
84852;SDS011;75109;47.440;19.310;2024-01-06T01:42:55;38.37;;;37.30;;
84852;SDS011;75109;47.440;19.310;2024-01-06T01:43:36;38.57;;;37.77;;
84852;SDS011;75109;47.440;19.310;2024-01-06T01:44:11;39.13;;;38.53;;
84852;SDS011;75109;47.440;19.310;2024-01-06T01:44:44;37.27;;;36.77;;
84852;SDS011;75109;47.440;19.310;2024-01-06T01:45:16;39.70;;;38.87;;
84852;SDS011;75109;47.440;19.310;2024-01-06T01:45:52;39.67;;;39.17;;
84852;SDS011;75109;47.440;19.310;2024-01-06T01:46:27;39.70;;;38.73;;
84852;SDS011;75109;47.440;19.310;2024-01-06T01:47:03;39.80;;;39.53;;
84852;SDS011;75109;47.440;19.310;2024-01-06T01:47:37;37.70;;;37.53;;
84852;SDS011;75109;47.440;19.310;2024-01-06T01:48:16;37.83;;;37.57;;
84852;SDS011;75109;47.440;19.310;2024-01-06T01:48:50;37.07;;;36.77;;
84852;SDS011;75109;47.440;19.310;2024-01-06T01:49:26;37.97;;;37.63;;
84852;SDS011;75109;47.440;19.310;2024-01-06T01:49:59;36.83;;;36.50;;
84852;SDS011;75109;47.440;19.310;2024-01-06T01:50:33;37.67;;;37.50;;
84852;SDS011;75109;47.440;19.310;2024-01-06T01:51:06;38.73;;;38.60;;
84852;SDS011;75109;47.440;19.310;2024-01-06T01:51:43;38.07;;;37.47;;
84852;SDS011;75109;47.440;19.310;2024-01-06T01:52:16;38.83;;;37.97;;
84852;SDS011;75109;47.440;19.310;2024-01-06T01:52:49;38.07;;;37.13;;
84852;SDS011;75109;47.440;19.310;2024-01-06T01:53:21;38.53;;;37.73;;
84852;SDS011;75109;47.440;19.310;2024-01-06T01:53:55;38.90;;;38.63;;
84852;SDS011;75109;47.440;19.310;2024-01-06T01:54:29;39.33;;;39.03;;
84852;SDS011;75109;47.440;19.310;2024-01-06T01:55:01;38.47;;;38.37;;
84852;SDS011;75109;47.440;19.310;2024-01-06T01:55:34;38.03;;;37.27;;
84852;SDS011;75109;47.440;19.310;2024-01-06T01:56:06;37.00;;;36.93;;
84852;SDS011;75109;47.440;19.310;2024-01-06T01:56:38;35.77;;;35.77;;
84852;SDS011;75109;47.440;19.310;2024-01-06T01:57:13;35.60;;;35.60;;
84852;SDS011;75109;47.440;19.310;2024-01-06T01:57:46;36.60;;;36.27;;
84852;SDS011;75109;47.440;19.310;2024-01-06T01:58:19;36.30;;;36.07;;
84852;SDS011;75109;47.440;19.310;2024-01-06T01:58:51;37.23;;;36.97;;
84852;SDS011;75109;47.440;19.310;2024-01-06T01:59:24;36.50;;;36.03;;
84852;SDS011;75109;47.440;19.310;2024-01-06T01:59:57;37.13;;;36.73;;
84852;SDS011;75109;47.440;19.310;2024-01-06T02:00:29;35.87;;;35.83;;
84852;SDS011;75109;47.440;19.310;2024-01-06T02:01:02;35.50;;;35.47;;
84852;SDS011;75109;47.440;19.310;2024-01-06T02:01:34;35.33;;;35.27;;
84852;SDS011;75109;47.440;19.310;2024-01-06T02:02:07;34.33;;;34.13;;
84852;SDS011;75109;47.440;19.310;2024-01-06T02:02:40;36.10;;;35.50;;
84852;SDS011;75109;47.440;19.310;2024-01-06T02:03:12;37.97;;;37.03;;
84852;SDS011;75109;47.440;19.310;2024-01-06T02:03:46;37.40;;;36.47;;
84852;SDS011;75109;47.440;19.310;2024-01-06T02:04:19;35.43;;;35.17;;
84852;SDS011;75109;47.440;19.310;2024-01-06T02:04:51;35.83;;;34.93;;
84852;SDS011;75109;47.440;19.310;2024-01-06T02:05:23;35.07;;;34.70;;
84852;SDS011;75109;47.440;19.310;2024-01-06T02:05:55;36.47;;;35.83;;
84852;SDS011;75109;47.440;19.310;2024-01-06T02:06:27;35.70;;;35.30;;
84852;SDS011;75109;47.440;19.310;2024-01-06T02:07:00;35.40;;;35.33;;
84852;SDS011;75109;47.440;19.310;2024-01-06T02:07:32;35.40;;;35.40;;
84852;SDS011;75109;47.440;19.310;2024-01-06T02:08:04;35.97;;;35.97;;
84852;SDS011;75109;47.440;19.310;2024-01-06T02:08:37;35.63;;;35.37;;
84852;SDS011;75109;47.440;19.310;2024-01-06T02:09:09;36.17;;;35.60;;
84852;SDS011;75109;47.440;19.310;2024-01-06T02:09:42;34.93;;;34.43;;
84852;SDS011;75109;47.440;19.310;2024-01-06T02:10:14;36.20;;;35.47;;
84852;SDS011;75109;47.440;19.310;2024-01-06T02:10:47;35.87;;;35.47;;
84852;SDS011;75109;47.440;19.310;2024-01-06T02:11:19;36.33;;;35.47;;
84852;SDS011;75109;47.440;19.310;2024-01-06T02:11:51;35.33;;;34.93;;
84852;SDS011;75109;47.440;19.310;2024-01-06T02:12:23;37.27;;;36.70;;
84852;SDS011;75109;47.440;19.310;2024-01-06T02:12:55;36.00;;;35.63;;
84852;SDS011;75109;47.440;19.310;2024-01-06T02:13:32;36.00;;;35.30;;
84852;SDS011;75109;47.440;19.310;2024-01-06T02:14:05;34.83;;;34.80;;
84852;SDS011;75109;47.440;19.310;2024-01-06T02:14:37;34.90;;;34.60;;
84852;SDS011;75109;47.440;19.310;2024-01-06T02:15:10;35.60;;;35.17;;
84852;SDS011;75109;47.440;19.310;2024-01-06T02:15:42;34.20;;;34.20;;
84852;SDS011;75109;47.440;19.310;2024-01-06T02:16:14;34.93;;;34.70;;
84852;SDS011;75109;47.440;19.310;2024-01-06T02:16:46;34.23;;;33.43;;
84852;SDS011;75109;47.440;19.310;2024-01-06T02:17:18;33.77;;;33.40;;
84852;SDS011;75109;47.440;19.310;2024-01-06T02:17:50;34.87;;;34.57;;
84852;SDS011;75109;47.440;19.310;2024-01-06T02:18:23;34.73;;;34.33;;
84852;SDS011;75109;47.440;19.310;2024-01-06T02:18:56;33.23;;;32.67;;
84852;SDS011;75109;47.440;19.310;2024-01-06T02:19:32;34.47;;;33.93;;
84852;SDS011;75109;47.440;19.310;2024-01-06T02:20:04;34.57;;;34.07;;
84852;SDS011;75109;47.440;19.310;2024-01-06T02:20:38;32.13;;;32.00;;
84852;SDS011;75109;47.440;19.310;2024-01-06T02:21:15;33.83;;;33.00;;
84852;SDS011;75109;47.440;19.310;2024-01-06T02:21:53;31.77;;;31.67;;
84852;SDS011;75109;47.440;19.310;2024-01-06T02:22:25;32.63;;;32.37;;
84852;SDS011;75109;47.440;19.310;2024-01-06T02:22:57;31.43;;;31.33;;
84852;SDS011;75109;47.440;19.310;2024-01-06T02:23:33;32.23;;;32.03;;
84852;SDS011;75109;47.440;19.310;2024-01-06T02:24:06;34.93;;;34.57;;
84852;SDS011;75109;47.440;19.310;2024-01-06T02:24:39;32.67;;;32.67;;
84852;SDS011;75109;47.440;19.310;2024-01-06T02:25:11;33.83;;;33.23;;
84852;SDS011;75109;47.440;19.310;2024-01-06T02:25:44;33.43;;;33.33;;
84852;SDS011;75109;47.440;19.310;2024-01-06T02:26:16;32.53;;;31.97;;
84852;SDS011;75109;47.440;19.310;2024-01-06T02:26:48;33.07;;;32.50;;
84852;SDS011;75109;47.440;19.310;2024-01-06T02:27:21;33.83;;;33.27;;
84852;SDS011;75109;47.440;19.310;2024-01-06T02:27:53;33.90;;;33.90;;
84852;SDS011;75109;47.440;19.310;2024-01-06T02:28:25;34.33;;;34.00;;
84852;SDS011;75109;47.440;19.310;2024-01-06T02:28:57;33.80;;;33.13;;
84852;SDS011;75109;47.440;19.310;2024-01-06T02:29:29;33.63;;;33.60;;
84852;SDS011;75109;47.440;19.310;2024-01-06T02:30:01;32.50;;;32.50;;
84852;SDS011;75109;47.440;19.310;2024-01-06T02:30:33;33.37;;;32.97;;
84852;SDS011;75109;47.440;19.310;2024-01-06T02:31:05;35.70;;;34.63;;
84852;SDS011;75109;47.440;19.310;2024-01-06T02:31:37;35.90;;;34.77;;
84852;SDS011;75109;47.440;19.310;2024-01-06T02:32:10;32.13;;;31.83;;
84852;SDS011;75109;47.440;19.310;2024-01-06T02:32:42;31.50;;;31.50;;
84852;SDS011;75109;47.440;19.310;2024-01-06T02:33:15;32.43;;;32.43;;
84852;SDS011;75109;47.440;19.310;2024-01-06T02:33:47;32.60;;;32.57;;
84852;SDS011;75109;47.440;19.310;2024-01-06T02:34:19;33.20;;;33.07;;
84852;SDS011;75109;47.440;19.310;2024-01-06T02:34:51;32.03;;;31.70;;
84852;SDS011;75109;47.440;19.310;2024-01-06T02:35:23;32.70;;;32.47;;
84852;SDS011;75109;47.440;19.310;2024-01-06T02:35:55;34.57;;;34.10;;
84852;SDS011;75109;47.440;19.310;2024-01-06T02:36:28;31.93;;;31.90;;
84852;SDS011;75109;47.440;19.310;2024-01-06T02:37:02;32.03;;;32.03;;
84852;SDS011;75109;47.440;19.310;2024-01-06T02:37:34;30.57;;;30.47;;
84852;SDS011;75109;47.440;19.310;2024-01-06T02:38:06;31.53;;;31.37;;
84852;SDS011;75109;47.440;19.310;2024-01-06T02:38:40;32.30;;;32.27;;
84852;SDS011;75109;47.440;19.310;2024-01-06T02:39:12;32.10;;;32.10;;
84852;SDS011;75109;47.440;19.310;2024-01-06T02:39:44;31.77;;;31.77;;
84852;SDS011;75109;47.440;19.310;2024-01-06T02:40:16;32.03;;;31.80;;
84852;SDS011;75109;47.440;19.310;2024-01-06T02:40:48;31.83;;;31.77;;
84852;SDS011;75109;47.440;19.310;2024-01-06T02:41:20;31.57;;;31.57;;
84852;SDS011;75109;47.440;19.310;2024-01-06T02:41:52;31.20;;;31.20;;
84852;SDS011;75109;47.440;19.310;2024-01-06T02:42:25;31.10;;;31.10;;
84852;SDS011;75109;47.440;19.310;2024-01-06T02:42:57;30.77;;;30.77;;
84852;SDS011;75109;47.440;19.310;2024-01-06T02:43:31;30.07;;;30.07;;
84852;SDS011;75109;47.440;19.310;2024-01-06T02:44:03;30.97;;;30.77;;
84852;SDS011;75109;47.440;19.310;2024-01-06T02:44:36;33.17;;;32.43;;
84852;SDS011;75109;47.440;19.310;2024-01-06T02:45:08;31.17;;;30.97;;
84852;SDS011;75109;47.440;19.310;2024-01-06T02:45:41;31.83;;;31.80;;
84852;SDS011;75109;47.440;19.310;2024-01-06T02:46:13;31.50;;;31.47;;
84852;SDS011;75109;47.440;19.310;2024-01-06T02:46:45;31.17;;;31.07;;
84852;SDS011;75109;47.440;19.310;2024-01-06T02:47:17;30.93;;;30.87;;
84852;SDS011;75109;47.440;19.310;2024-01-06T02:47:49;32.17;;;31.63;;
84852;SDS011;75109;47.440;19.310;2024-01-06T02:48:21;33.37;;;33.33;;
84852;SDS011;75109;47.440;19.310;2024-01-06T02:48:54;32.37;;;32.07;;
84852;SDS011;75109;47.440;19.310;2024-01-06T02:49:26;33.33;;;32.70;;
84852;SDS011;75109;47.440;19.310;2024-01-06T02:49:58;34.80;;;34.03;;
84852;SDS011;75109;47.440;19.310;2024-01-06T02:50:30;34.47;;;33.83;;
84852;SDS011;75109;47.440;19.310;2024-01-06T02:51:02;33.07;;;32.80;;
84852;SDS011;75109;47.440;19.310;2024-01-06T02:51:35;31.73;;;31.63;;
84852;SDS011;75109;47.440;19.310;2024-01-06T02:52:08;33.00;;;32.73;;
84852;SDS011;75109;47.440;19.310;2024-01-06T02:52:40;34.13;;;33.40;;
84852;SDS011;75109;47.440;19.310;2024-01-06T02:53:12;33.60;;;33.00;;
84852;SDS011;75109;47.440;19.310;2024-01-06T02:53:45;33.30;;;33.20;;
84852;SDS011;75109;47.440;19.310;2024-01-06T02:54:17;35.13;;;34.63;;
84852;SDS011;75109;47.440;19.310;2024-01-06T02:54:49;33.83;;;33.13;;
84852;SDS011;75109;47.440;19.310;2024-01-06T02:55:21;32.73;;;32.70;;
84852;SDS011;75109;47.440;19.310;2024-01-06T02:55:53;34.17;;;33.87;;
84852;SDS011;75109;47.440;19.310;2024-01-06T02:56:25;34.00;;;33.20;;
84852;SDS011;75109;47.440;19.310;2024-01-06T02:56:57;32.20;;;32.10;;
84852;SDS011;75109;47.440;19.310;2024-01-06T02:57:30;31.10;;;30.93;;
84852;SDS011;75109;47.440;19.310;2024-01-06T02:58:02;32.93;;;32.53;;
84852;SDS011;75109;47.440;19.310;2024-01-06T02:58:35;32.47;;;32.40;;
84852;SDS011;75109;47.440;19.310;2024-01-06T02:59:07;32.97;;;32.37;;
84852;SDS011;75109;47.440;19.310;2024-01-06T02:59:39;31.93;;;31.10;;
84852;SDS011;75109;47.440;19.310;2024-01-06T03:00:11;31.23;;;30.70;;
84852;SDS011;75109;47.440;19.310;2024-01-06T03:00:44;31.63;;;31.47;;
84852;SDS011;75109;47.440;19.310;2024-01-06T03:01:17;33.07;;;33.03;;
84852;SDS011;75109;47.440;19.310;2024-01-06T03:01:49;32.00;;;31.67;;
84852;SDS011;75109;47.440;19.310;2024-01-06T03:02:21;31.27;;;30.83;;
84852;SDS011;75109;47.440;19.310;2024-01-06T03:02:53;30.73;;;30.70;;
84852;SDS011;75109;47.440;19.310;2024-01-06T03:03:25;29.83;;;29.83;;
84852;SDS011;75109;47.440;19.310;2024-01-06T03:03:57;29.77;;;29.60;;
84852;SDS011;75109;47.440;19.310;2024-01-06T03:04:30;31.93;;;31.67;;
84852;SDS011;75109;47.440;19.310;2024-01-06T03:05:02;32.93;;;32.10;;
84852;SDS011;75109;47.440;19.310;2024-01-06T03:05:34;29.90;;;29.87;;
84852;SDS011;75109;47.440;19.310;2024-01-06T03:06:08;30.33;;;30.17;;
84852;SDS011;75109;47.440;19.310;2024-01-06T03:06:40;31.43;;;31.07;;
84852;SDS011;75109;47.440;19.310;2024-01-06T03:07:14;31.67;;;31.53;;
84852;SDS011;75109;47.440;19.310;2024-01-06T03:07:46;31.33;;;31.20;;
84852;SDS011;75109;47.440;19.310;2024-01-06T03:08:18;32.60;;;31.90;;
84852;SDS011;75109;47.440;19.310;2024-01-06T03:08:50;32.17;;;31.80;;
84852;SDS011;75109;47.440;19.310;2024-01-06T03:09:22;32.17;;;32.17;;
84852;SDS011;75109;47.440;19.310;2024-01-06T03:09:54;32.27;;;32.17;;
84852;SDS011;75109;47.440;19.310;2024-01-06T03:10:26;33.70;;;33.20;;
84852;SDS011;75109;47.440;19.310;2024-01-06T03:10:58;33.50;;;32.70;;
84852;SDS011;75109;47.440;19.310;2024-01-06T03:11:30;34.60;;;33.67;;
84852;SDS011;75109;47.440;19.310;2024-01-06T03:12:03;33.73;;;32.90;;
84852;SDS011;75109;47.440;19.310;2024-01-06T03:12:36;33.00;;;32.97;;
84852;SDS011;75109;47.440;19.310;2024-01-06T03:13:08;31.43;;;31.43;;
84852;SDS011;75109;47.440;19.310;2024-01-06T03:13:41;30.50;;;30.50;;
84852;SDS011;75109;47.440;19.310;2024-01-06T03:14:13;30.63;;;30.63;;
84852;SDS011;75109;47.440;19.310;2024-01-06T03:14:45;30.47;;;30.47;;
84852;SDS011;75109;47.440;19.310;2024-01-06T03:15:17;31.17;;;31.13;;
84852;SDS011;75109;47.440;19.310;2024-01-06T03:15:49;32.70;;;32.10;;
84852;SDS011;75109;47.440;19.310;2024-01-06T03:16:21;31.20;;;30.67;;
84852;SDS011;75109;47.440;19.310;2024-01-06T03:16:53;30.43;;;30.43;;
84852;SDS011;75109;47.440;19.310;2024-01-06T03:17:25;30.23;;;30.23;;